Time;durP1;ratioP1;P1;durP2;ratioP2;P2;SDS_P1;SDS_P2;PMS_P1;PMS_P2;Temp;Humidity;BMP_temperature;BMP_pressure;BME280_temperature;BME280_humidity;BME280_pressure;Samples;Min_cycle;Max_cycle;Signal;HPM_P1;HPM_P2
2023/07/02 00:01:10;;;;;;;14.30;13.00;;;;;;;18.22;99.11;95762.45;108986;1273;22524;-83
2023/07/02 00:04:01;;;;;;;14.40;13.00;;;;;;;18.19;99.20;95762.83;108945;1267;26468;-84
2023/07/02 00:06:33;;;;;;;15.00;13.50;;;;;;;18.17;99.50;95760.55;108970;1270;23800;-84
2023/07/02 00:09:05;;;;;;;15.10;13.60;;;;;;;18.14;99.63;95758.63;108957;1272;62008;-83
2023/07/02 00:11:37;;;;;;;15.30;13.80;;;;;;;18.12;99.77;95756.60;108989;1273;22542;-83
2023/07/02 00:14:09;;;;;;;16.40;14.70;;;;;;;18.10;99.92;95758.33;109015;1273;22543;-84
2023/07/02 00:16:41;;;;;;;14.90;13.40;;;;;;;18.09;99.99;95759.98;108991;1273;22776;-84
2023/07/02 00:19:12;;;;;;;16.40;14.80;;;;;;;18.09;100.00;95764.52;108999;1273;22564;-84
2023/07/02 00:21:44;;;;;;;15.20;13.80;;;;;;;18.10;100.00;95764.21;108976;1273;22534;-83
2023/07/02 00:24:15;;;;;;;15.60;14.00;;;;;;;18.10;100.00;95762.14;108985;1269;24252;-83
2023/07/02 00:26:47;;;;;;;17.10;15.30;;;;;;;18.10;100.00;95761.23;108929;1266;22534;-83
2023/07/02 00:29:19;;;;;;;17.20;15.30;;;;;;;18.12;100.00;95764.64;108973;1266;35855;-83
2023/07/02 00:31:50;;;;;;;16.40;14.70;;;;;;;18.12;100.00;95765.55;109003;1273;22534;-83
2023/07/02 00:34:21;;;;;;;15.90;14.30;;;;;;;18.13;100.00;95765.13;108979;1272;22629;-83
2023/07/02 00:36:57;;;;;;;16.60;15.00;;;;;;;18.14;100.00;95768.36;108970;1273;22607;-83
2023/07/02 00:39:28;;;;;;;16.90;15.30;;;;;;;18.15;100.00;95762.09;108953;1270;22560;-83
2023/07/02 00:42:05;;;;;;;17.00;15.30;;;;;;;18.14;100.00;95763.15;108943;1272;24452;-83
2023/07/02 00:44:40;;;;;;;16.80;15.20;;;;;;;18.13;100.00;95767.42;109001;1273;22534;-83
2023/07/02 00:47:12;;;;;;;16.40;14.80;;;;;;;18.12;100.00;95766.25;109017;1272;22763;-83
2023/07/02 00:49:44;;;;;;;15.70;14.10;;;;;;;18.09;100.00;95770.02;108954;1270;51739;-83
2023/07/02 00:52:16;;;;;;;17.70;15.20;;;;;;;18.04;100.00;95764.78;109011;1273;25328;-83
2023/07/02 00:54:47;;;;;;;19.30;15.90;;;;;;;18.01;100.00;95764.00;108959;1273;22527;-83
2023/07/02 00:57:20;;;;;;;16.70;15.10;;;;;;;18.00;100.00;95759.91;108999;1273;22523;-83
2023/07/02 00:59:51;;;;;;;15.60;14.10;;;;;;;17.98;100.00;95757.86;108970;1270;22521;-83
2023/07/02 01:02:25;;;;;;;14.10;12.70;;;;;;;17.96;100.00;95755.84;108995;1273;24218;-84
2023/07/02 01:04:59;;;;;;;14.70;13.20;;;;;;;17.96;100.00;95758.90;109019;1256;24241;-83
2023/07/02 01:07:30;;;;;;;13.80;12.50;;;;;;;17.97;100.00;95763.66;108939;1266;25322;-84
2023/07/02 01:10:02;;;;;;;14.00;12.40;;;;;;;17.98;100.00;95754.20;108994;1273;22551;-83
2023/07/02 01:12:37;;;;;;;15.00;13.40;;;;;;;17.98;100.00;95753.20;108999;1273;22521;-83
2023/07/02 01:15:10;;;;;;;15.80;13.80;;;;;;;17.98;100.00;95754.10;108989;1272;22532;-83
2023/07/02 01:17:42;;;;;;;16.90;15.20;;;;;;;17.97;100.00;95756.99;108992;1273;22548;-84
2023/07/02 01:20:14;;;;;;;17.60;15.80;;;;;;;17.96;100.00;95757.66;108961;1269;24130;-83
2023/07/02 01:22:46;;;;;;;16.70;15.10;;;;;;;17.92;100.00;95760.88;108956;1272;22523;-83
2023/07/02 01:25:18;;;;;;;16.80;15.00;;;;;;;17.87;100.00;95757.91;108995;1273;22563;-83
2023/07/02 01:27:49;;;;;;;16.80;15.10;;;;;;;17.86;100.00;95751.35;108982;1273;22588;-83
2023/07/02 01:30:21;;;;;;;17.00;15.20;;;;;;;17.84;100.00;95757.21;108901;1269;24890;-83
2023/07/02 01:32:52;;;;;;;16.10;14.60;;;;;;;17.82;100.00;95755.46;108968;1274;24213;-83
2023/07/02 01:35:23;;;;;;;18.70;14.70;;;;;;;17.79;100.00;95750.00;108942;1273;22543;-83
2023/07/02 01:37:54;;;;;;;17.00;15.30;;;;;;;17.79;100.00;95750.83;108978;1274;22612;-83
2023/07/02 01:40:26;;;;;;;17.00;15.30;;;;;;;17.77;100.00;95748.64;108931;1267;33878;-83
2023/07/02 01:42:57;;;;;;;17.10;15.50;;;;;;;17.76;100.00;95745.63;109024;1273;22528;-83
2023/07/02 01:45:29;;;;;;;16.70;15.00;;;;;;;17.75;100.00;95750.59;109033;1273;22666;-81
2023/07/02 01:48:01;;;;;;;16.70;15.00;;;;;;;17.75;100.00;95749.89;109024;1273;24252;-83
2023/07/02 01:50:37;;;;;;;17.10;15.30;;;;;;;17.73;100.00;95746.89;109053;1270;37489;-83
2023/07/02 01:53:11;;;;;;;15.30;13.80;;;;;;;17.72;100.00;95747.03;109107;1270;22636;-83
2023/07/02 01:55:43;;;;;;;15.50;13.70;;;;;;;17.71;100.00;95743.26;109092;1273;23829;-83
2023/07/02 01:58:17;;;;;;;16.20;14.00;;;;;;;17.70;100.00;95745.68;109093;1273;22511;-84
2023/07/02 02:00:50;;;;;;;16.10;14.60;;;;;;;17.70;100.00;95745.92;109085;1273;23230;-83
2023/07/02 02:03:23;;;;;;;16.50;14.80;;;;;;;17.74;100.00;95741.42;109093;1266;22515;-83
2023/07/02 02:05:54;;;;;;;17.10;15.20;;;;;;;17.75;100.00;95741.24;109092;1273;22534;-83
2023/07/02 02:08:27;;;;;;;14.70;13.20;;;;;;;17.78;100.00;95746.05;107513;1273;2091834;-84
2023/07/02 02:11:02;;;;;;;14.50;13.20;;;;;;;17.78;100.00;95745.60;109088;1273;23893;-83
2023/07/02 02:13:34;;;;;;;14.90;13.40;;;;;;;17.78;100.00;95744.91;109038;1270;22646;-83
2023/07/02 02:16:05;;;;;;;15.60;14.00;;;;;;;17.78;100.00;95743.92;109111;1271;22557;-83
2023/07/02 02:18:40;;;;;;;15.10;13.40;;;;;;;17.78;100.00;95747.27;109020;1267;45768;-83
2023/07/02 02:21:16;;;;;;;12.60;11.30;;;;;;;17.77;100.00;95745.11;109072;1273;23736;-82
2023/07/02 02:23:50;;;;;;;14.70;13.00;;;;;;;17.76;100.00;95742.58;109097;1266;24174;-82
2023/07/02 02:26:28;;;;;;;14.00;12.00;;;;;;;17.76;100.00;95740.95;109049;1273;22555;-83
2023/07/02 02:29:00;;;;;;;13.60;12.20;;;;;;;17.76;100.00;95740.19;109002;1270;51126;-83
2023/07/02 02:31:36;;;;;;;14.30;12.80;;;;;;;17.77;100.00;95742.74;109035;1273;24227;-83
2023/07/02 02:34:08;;;;;;;14.80;13.00;;;;;;;17.80;100.00;95730.84;109072;1270;22565;-83
2023/07/02 02:36:41;;;;;;;14.00;12.60;;;;;;;17.82;100.00;95734.42;109044;1273;22522;-82
2023/07/02 02:39:21;;;;;;;15.20;13.70;;;;;;;17.84;100.00;95731.95;109040;1270;68647;-83
2023/07/02 02:41:55;;;;;;;14.90;12.60;;;;;;;17.87;100.00;95733.06;108995;1273;25259;-82
2023/07/02 02:44:32;;;;;;;15.20;13.60;;;;;;;17.87;100.00;95732.55;109015;1273;22584;-83
2023/07/02 02:47:05;;;;;;;15.10;13.50;;;;;;;17.89;100.00;95734.68;108971;1273;25395;-83
2023/07/02 02:49:40;;;;;;;14.80;13.30;;;;;;;17.90;100.00;95731.33;109041;1273;47579;-83
2023/07/02 02:52:15;;;;;;;14.80;13.30;;;;;;;17.90;100.00;95730.41;109056;1273;22548;-83
2023/07/02 02:54:48;;;;;;;14.40;12.90;;;;;;;17.90;100.00;95727.18;108968;1273;22522;-83
2023/07/02 02:57:21;;;;;;;15.00;13.50;;;;;;;17.87;100.00;95729.55;109026;1273;22520;-83
2023/07/02 02:59:53;;;;;;;15.60;13.90;;;;;;;17.87;100.00;95727.27;108961;1273;72631;-83
2023/07/02 03:02:26;;;;;;;16.40;14.00;;;;;;;17.87;100.00;95724.13;109085;1273;25571;-83
2023/07/02 03:05:02;;;;;;;15.50;13.80;;;;;;;17.88;100.00;95722.30;109059;1273;22512;-83
2023/07/02 03:07:35;;;;;;;16.80;14.60;;;;;;;17.88;100.00;95721.93;109051;1269;22536;-83
2023/07/02 03:10:12;;;;;;;15.50;13.80;;;;;;;17.89;100.00;95720.29;109032;1273;72710;-83
2023/07/02 03:12:46;;;;;;;16.10;14.40;;;;;;;17.91;100.00;95717.41;109031;1269;22539;-83
2023/07/02 03:15:18;;;;;;;14.60;13.10;;;;;;;17.92;100.00;95718.35;109089;1273;23089;-83
2023/07/02 03:17:50;;;;;;;15.30;13.80;;;;;;;17.92;100.00;95720.66;109046;1273;22515;-83
2023/07/02 03:20:26;;;;;;;14.60;13.20;;;;;;;17.94;100.00;95717.55;108967;1275;62048;-83
2023/07/02 03:23:00;;;;;;;14.30;12.80;;;;;;;17.95;100.00;95718.20;109089;1270;22625;-81
2023/07/02 03:25:31;;;;;;;16.10;13.70;;;;;;;17.96;100.00;95719.83;109053;1274;22550;-83
2023/07/02 03:28:03;;;;;;;14.80;13.30;;;;;;;17.98;100.00;95717.26;109051;1270;22524;-83
2023/07/02 03:30:37;;;;;;;15.10;13.50;;;;;;;18.00;100.00;95718.98;108999;1274;43460;-82
2023/07/02 03:33:09;;;;;;;16.30;13.60;;;;;;;18.00;100.00;95719.83;109055;1273;22562;-83
2023/07/02 03:35:42;;;;;;;16.60;14.20;;;;;;;18.00;100.00;95715.71;109022;1267;25328;-83
2023/07/02 03:38:18;;;;;;;14.50;13.00;;;;;;;18.01;100.00;95718.95;109028;1272;45100;-83
2023/07/02 03:40:50;;;;;;;13.20;11.90;;;;;;;18.03;100.00;95713.64;109101;1264;22638;-82
2023/07/02 03:43:22;;;;;;;16.00;13.50;;;;;;;18.03;100.00;95712.72;109092;1273;22528;-82
2023/07/02 03:45:54;;;;;;;14.80;13.30;;;;;;;18.04;100.00;95715.58;109008;1271;22599;-83
2023/07/02 03:48:25;;;;;;;14.60;13.20;;;;;;;18.04;100.00;95711.67;108966;1272;58560;-83
2023/07/02 03:50:57;;;;;;;14.60;13.10;;;;;;;18.06;100.00;95710.11;108982;1263;25612;-82
2023/07/02 03:53:28;;;;;;;14.00;12.60;;;;;;;18.09;100.00;95710.77;108966;1273;24382;-82
2023/07/02 03:56:00;;;;;;;15.40;13.50;;;;;;;18.08;100.00;95712.75;108946;1268;24216;-83
2023/07/02 03:58:31;;;;;;;16.60;13.00;;;;;;;18.07;100.00;95711.49;108950;1272;60373;-83
2023/07/02 04:01:03;;;;;;;14.00;12.50;;;;;;;18.08;100.00;95714.52;108954;1273;22558;-83
2023/07/02 04:03:34;;;;;;;15.00;12.70;;;;;;;18.11;100.00;95712.35;109044;1273;22522;-83
2023/07/02 04:06:06;;;;;;;14.40;13.00;;;;;;;18.12;100.00;95715.29;108967;1267;22509;-83
2023/07/02 04:08:38;;;;;;;14.20;12.70;;;;;;;18.15;100.00;95714.11;108967;1270;22554;-83
2023/07/02 04:11:10;;;;;;;14.00;12.50;;;;;;;18.18;100.00;95715.44;108974;1273;22527;-83
2023/07/02 04:13:44;;;;;;;15.80;13.70;;;;;;;18.19;100.00;95718.83;108969;1273;22541;-83
2023/07/02 04:16:16;;;;;;;14.50;13.00;;;;;;;18.20;100.00;95719.39;108943;1272;22907;-83
2023/07/02 04:18:48;;;;;;;14.00;12.60;;;;;;;18.21;100.00;95718.19;108943;1273;58007;-83
2023/07/02 04:21:20;;;;;;;15.20;13.70;;;;;;;18.23;100.00;95719.98;108958;1273;22584;-83
2023/07/02 04:23:51;;;;;;;15.40;13.70;;;;;;;18.23;100.00;95720.91;109023;1257;22554;-83
2023/07/02 04:26:23;;;;;;;14.80;12.60;;;;;;;18.25;99.96;95725.94;109009;1273;22596;-82
2023/07/02 04:28:55;;;;;;;14.10;12.60;;;;;;;18.24;99.90;95726.84;108926;1273;59918;-83
2023/07/02 04:31:27;;;;;;;13.70;12.30;;;;;;;18.21;99.64;95733.75;109003;1273;22521;-82
2023/07/02 04:33:59;;;;;;;13.40;12.00;;;;;;;18.17;99.46;95733.05;109025;1270;22528;-82
2023/07/02 04:36:30;;;;;;;13.40;12.10;;;;;;;18.15;99.70;95737.59;109027;1267;22919;-82
2023/07/02 04:39:02;;;;;;;14.20;12.10;;;;;;;18.20;99.97;95743.70;108974;1273;47314;-83
2023/07/02 04:41:33;;;;;;;13.60;12.10;;;;;;;18.32;100.00;95746.05;108993;1273;25287;-82
2023/07/02 04:44:05;;;;;;;12.90;11.70;;;;;;;18.48;100.00;95743.70;108987;1267;22527;-83
2023/07/02 04:46:37;;;;;;;12.80;11.60;;;;;;;18.60;100.00;95743.60;108986;1273;24228;-83
2023/07/02 04:49:08;;;;;;;12.80;11.50;;;;;;;18.70;100.00;95742.74;108879;1270;99959;-83
2023/07/02 04:51:40;;;;;;;11.40;10.20;;;;;;;18.75;99.97;95745.80;108994;1273;22526;-82
2023/07/02 04:54:11;;;;;;;11.40;10.20;;;;;;;18.79;99.69;95750.92;108969;1273;22601;-83
2023/07/02 04:56:43;;;;;;;10.30;9.20;;;;;;;18.81;99.40;95749.90;109012;1273;22556;-83
2023/07/02 04:59:23;;;;;;;10.50;9.20;;;;;;;18.79;99.08;95754.08;108983;1273;28848;-83
2023/07/02 05:01:54;;;;;;;9.20;8.30;;;;;;;18.79;98.98;95757.07;108970;1273;22569;-83
2023/07/02 05:04:26;;;;;;;10.00;9.00;;;;;;;18.81;98.92;95753.66;109040;1266;25396;-83
2023/07/02 05:06:57;;;;;;;10.80;9.80;;;;;;;18.81;98.52;95754.58;108969;1272;22532;-83
2023/07/02 05:09:29;;;;;;;10.30;9.30;;;;;;;18.83;98.50;95751.17;108990;1270;60302;-83
2023/07/02 05:12:02;;;;;;;10.70;9.60;;;;;;;18.93;98.89;95752.77;108972;1271;22532;-83
2023/07/02 05:14:34;;;;;;;11.00;9.80;;;;;;;19.09;98.93;95754.02;108989;1273;22530;-83
2023/07/02 05:17:06;;;;;;;10.10;9.00;;;;;;;19.27;98.90;95754.20;108979;1272;22575;-83
2023/07/02 05:19:38;;;;;;;10.80;9.70;;;;;;;19.47;98.79;95750.81;108947;1273;60133;-83
2023/07/02 05:22:09;;;;;;;10.90;9.20;;;;;;;19.67;98.40;95755.67;108945;1272;25255;-83
2023/07/02 05:24:41;;;;;;;11.00;9.80;;;;;;;19.99;98.92;95757.77;109010;1267;24380;-83
2023/07/02 05:27:13;;;;;;;11.40;10.10;;;;;;;20.55;98.99;95756.64;109022;1269;22540;-77
2023/07/02 05:29:53;;;;;;;12.50;9.80;;;;;;;21.70;100.00;95755.13;108640;1272;37194;-76
2023/07/02 05:32:26;;;;;;;11.60;10.40;;;;;;;23.89;100.00;95755.27;108588;1267;22535;-77
2023/07/02 05:34:59;;;;;;;10.90;9.80;;;;;;;25.79;97.63;95751.34;108653;1267;22525;-76
2023/07/02 05:37:31;;;;;;;11.70;9.70;;;;;;;27.22;92.73;95753.23;108610;1267;22529;-77
2023/07/02 05:40:02;;;;;;;10.00;9.00;;;;;;;28.32;88.16;95755.95;108518;1270;22531;-77
2023/07/02 05:42:34;;;;;;;10.20;9.10;;;;;;;29.29;84.40;95758.58;108656;1270;22529;-75
2023/07/02 05:45:06;;;;;;;11.30;9.50;;;;;;;30.03;80.22;95750.23;108606;1274;22517;-76
2023/07/02 05:47:38;;;;;;;10.90;9.50;;;;;;;30.56;76.27;95750.09;108652;1267;22554;-76
2023/07/02 05:50:11;;;;;;;10.40;8.80;;;;;;;30.98;74.07;95749.57;108482;1273;267232;-77
2023/07/02 05:52:43;;;;;;;11.10;8.70;;;;;;;31.38;71.18;95754.73;108707;1266;22511;-76
2023/07/02 05:55:14;;;;;;;10.40;9.40;;;;;;;31.80;68.99;95751.30;108755;1273;24281;-77
2023/07/02 05:57:48;;;;;;;9.80;8.50;;;;;;;32.24;66.73;95745.97;109251;1267;22609;-79
2023/07/02 06:00:20;;;;;;;9.70;7.70;;;;;;;32.53;64.63;95746.21;109259;1266;26267;-78
2023/07/02 06:02:51;;;;;;;9.80;7.70;;;;;;;32.81;62.10;95752.98;108694;1267;22531;-77
2023/07/02 06:05:23;;;;;;;8.80;7.60;;;;;;;32.88;60.29;95753.14;108563;1267;22624;-78
2023/07/02 06:07:54;;;;;;;10.60;8.50;;;;;;;32.94;59.56;95750.48;108596;1269;24164;-78
2023/07/02 06:10:26;;;;;;;9.70;8.50;;;;;;;32.91;58.38;95752.55;108526;1267;169330;-77
2023/07/02 06:12:58;;;;;;;8.90;7.90;;;;;;;32.92;57.48;95752.91;108681;1267;24358;-76
2023/07/02 06:15:30;;;;;;;8.70;7.10;;;;;;;32.90;56.21;95749.77;108622;1273;22522;-76
2023/07/02 06:18:02;;;;;;;8.90;6.70;;;;;;;32.82;55.45;95745.66;108673;1267;22655;-76
2023/07/02 06:20:34;;;;;;;9.00;6.60;;;;;;;32.82;54.28;95753.34;108594;1273;41997;-76
2023/07/02 06:23:06;;;;;;;7.80;6.10;;;;;;;32.79;53.54;95752.80;108713;1266;22518;-76
2023/07/02 06:25:37;;;;;;;7.20;5.60;;;;;;;32.70;52.77;95751.38;108648;1267;22528;-76
2023/07/02 06:28:08;;;;;;;7.40;6.30;;;;;;;32.57;52.36;95746.33;108718;1267;25393;-77
2023/07/02 06:30:40;;;;;;;8.00;6.20;;;;;;;32.55;52.02;95749.92;108752;1268;34037;-76
2023/07/02 06:33:12;;;;;;;8.10;6.60;;;;;;;32.59;51.93;95749.66;108800;1273;22514;-76
2023/07/02 06:35:43;;;;;;;9.10;6.20;;;;;;;32.41;51.51;95746.77;108743;1273;22687;-76
2023/07/02 06:38:15;;;;;;;8.10;6.40;;;;;;;32.23;51.33;95749.67;108733;1266;22508;-76
2023/07/02 06:40:46;;;;;;;7.50;5.30;;;;;;;32.02;50.35;95750.26;108792;1273;25243;-77
2023/07/02 06:43:18;;;;;;;7.60;6.00;;;;;;;31.32;48.55;95749.08;108756;1273;23832;-76
2023/07/02 06:45:49;;;;;;;6.50;5.50;;;;;;;30.63;49.27;95750.30;108740;1274;22566;-76
2023/07/02 06:48:24;;;;;;;7.50;6.20;;;;;;;30.36;49.88;95751.20;108714;1273;62113;-77
2023/07/02 06:50:56;;;;;;;7.80;6.10;;;;;;;30.27;50.44;95747.51;108695;1268;25307;-79
2023/07/02 06:53:28;;;;;;;7.40;5.70;;;;;;;30.13;50.20;95745.02;108646;1270;22514;-77
2023/07/02 06:55:59;;;;;;;7.70;5.80;;;;;;;29.90;49.91;95743.29;108562;1269;22534;-76
2023/07/02 06:58:32;;;;;;;6.60;5.90;;;;;;;29.75;49.89;95745.02;108590;1273;55681;-78
2023/07/02 07:01:04;;;;;;;6.80;5.90;;;;;;;29.56;50.07;95741.30;108644;1273;22509;-79
2023/07/02 07:03:36;;;;;;;5.60;4.90;;;;;;;29.52;50.27;95741.90;108684;1270;23799;-77
2023/07/02 07:06:07;;;;;;;6.50;5.30;;;;;;;29.41;49.31;95743.08;108790;1266;25322;-78
2023/07/02 07:08:41;;;;;;;5.90;5.30;;;;;;;29.15;48.93;95746.70;108696;1273;37348;-77
2023/07/02 07:11:13;;;;;;;5.80;5.20;;;;;;;28.94;48.99;95745.47;108780;1273;22532;-77
2023/07/02 07:13:45;;;;;;;5.70;4.90;;;;;;;28.25;48.26;95749.11;108678;1273;24262;-76
2023/07/02 07:16:16;;;;;;;6.40;5.20;;;;;;;27.41;49.28;95744.31;108693;1273;22541;-76
2023/07/02 07:18:48;;;;;;;7.20;5.10;;;;;;;27.04;50.12;95749.94;108622;1273;35485;-76
2023/07/02 07:21:19;;;;;;;6.30;5.10;;;;;;;26.76;49.94;95751.31;108726;1266;22654;-77
2023/07/02 07:23:51;;;;;;;7.30;5.50;;;;;;;26.66;50.58;95751.59;108667;1267;25233;-77
2023/07/02 07:26:22;;;;;;;7.40;5.10;;;;;;;27.16;51.56;95750.66;108706;1270;22511;-76
2023/07/02 07:28:55;;;;;;;6.50;4.70;;;;;;;27.49;51.36;95757.66;108668;1273;28980;-76
2023/07/02 07:31:27;;;;;;;6.20;5.00;;;;;;;27.73;50.35;95754.80;108655;1274;22520;-76
2023/07/02 07:33:59;;;;;;;8.60;5.10;;;;;;;27.60;49.95;95757.98;108797;1270;22636;-76
2023/07/02 07:36:30;;;;;;;6.60;5.10;;;;;;;27.49;50.15;95758.20;108796;1267;22554;-76
2023/07/02 07:39:02;;;;;;;7.00;4.90;;;;;;;27.61;50.12;95759.23;108762;1267;30865;-76
2023/07/02 07:41:33;;;;;;;6.20;5.00;;;;;;;27.42;49.68;95762.17;108801;1266;22524;-76
2023/07/02 07:44:07;;;;;;;6.70;5.20;;;;;;;27.08;49.80;95763.42;108764;1267;22532;-76
2023/07/02 07:46:39;;;;;;;5.80;5.20;;;;;;;27.01;50.71;95766.60;108772;1273;22584;-76
2023/07/02 07:49:11;;;;;;;7.50;5.50;;;;;;;26.77;50.33;95764.66;108796;1266;22533;-76
2023/07/02 07:51:42;;;;;;;6.50;5.30;;;;;;;26.31;50.48;95767.48;108805;1267;22522;-76
2023/07/02 07:54:14;;;;;;;7.30;5.50;;;;;;;25.87;51.07;95771.58;108801;1270;22515;-76
2023/07/02 07:56:45;;;;;;;8.00;6.00;;;;;;;25.54;51.97;95770.66;108824;1267;22521;-76
2023/07/02 07:59:16;;;;;;;9.10;5.60;;;;;;;25.43;52.55;95771.33;108793;1267;22627;-76
2023/07/02 08:01:47;;;;;;;8.00;5.10;;;;;;;25.21;52.35;95772.88;108664;1274;22528;-77
2023/07/02 08:04:18;;;;;;;6.70;5.10;;;;;;;24.89;52.04;95774.64;108696;1266;24139;-76
2023/07/02 08:06:50;;;;;;;7.40;5.60;;;;;;;24.54;52.57;95775.48;108664;1273;22537;-76
2023/07/02 08:09:22;;;;;;;6.00;4.80;;;;;;;24.40;53.44;95779.67;108589;1273;25347;-76
2023/07/02 08:11:53;;;;;;;6.30;5.50;;;;;;;24.36;53.56;95778.21;109096;1273;25485;-77
2023/07/02 08:14:24;;;;;;;6.30;5.10;;;;;;;24.33;54.11;95774.33;108610;1273;25274;-77
2023/07/02 08:16:56;;;;;;;6.20;4.70;;;;;;;24.27;54.64;95778.73;108624;1273;22518;-76
2023/07/02 08:19:28;;;;;;;7.40;5.80;;;;;;;24.37;54.99;95776.89;108921;1266;36177;-76
2023/07/02 08:21:59;;;;;;;7.10;5.60;;;;;;;24.41;54.99;95780.84;108674;1263;22542;-75
2023/07/02 08:24:31;;;;;;;9.50;6.00;;;;;;;24.39;55.15;95780.61;108713;1270;22521;-76
2023/07/02 08:27:05;;;;;;;8.90;5.50;;;;;;;24.38;55.15;95777.98;108691;1268;22511;-76
2023/07/02 08:29:36;;;;;;;9.30;5.50;;;;;;;24.26;55.33;95775.48;108848;1273;22515;-79
2023/07/02 08:32:09;;;;;;;6.60;5.50;;;;;;;24.09;55.12;95776.85;109090;1268;24340;-78
2023/07/02 08:34:40;;;;;;;8.00;5.80;;;;;;;23.82;55.22;95782.52;108630;1267;23244;-75
2023/07/02 08:37:11;;;;;;;8.10;5.20;;;;;;;23.61;55.31;95787.80;108601;1273;22540;-76
2023/07/02 08:39:42;;;;;;;5.90;4.90;;;;;;;23.55;55.86;95790.33;108706;1273;23209;-75
2023/07/02 08:42:14;;;;;;;7.30;5.10;;;;;;;23.49;55.76;95792.08;108684;1266;23425;-77
2023/07/02 08:44:48;;;;;;;9.40;4.70;;;;;;;23.37;55.95;95798.14;108950;1273;24287;-76
2023/07/02 08:47:20;;;;;;;6.80;4.70;;;;;;;23.31;56.16;95799.20;108958;1271;22527;-75
2023/07/02 08:49:53;;;;;;;6.60;5.10;;;;;;;23.28;56.32;95801.27;108624;1266;22537;-79
2023/07/02 08:52:24;;;;;;;8.40;5.10;;;;;;;23.33;56.43;95800.13;108626;1266;22994;-76
2023/07/02 08:54:55;;;;;;;6.80;4.70;;;;;;;23.45;56.27;95801.02;108730;1272;22528;-81
2023/07/02 08:57:26;;;;;;;6.30;4.80;;;;;;;23.68;57.12;95802.29;108794;1266;22526;-81
2023/07/02 08:59:59;;;;;;;7.50;5.20;;;;;;;23.89;56.51;95795.55;108762;1273;22566;-82
2023/07/02 09:02:36;;;;;;;7.80;5.10;;;;;;;23.87;56.16;95800.02;108794;1267;22508;-81
2023/07/02 09:05:08;;;;;;;5.90;4.60;;;;;;;23.89;56.47;95800.41;108688;1273;22528;-82
2023/07/02 09:07:48;;;;;;;8.20;4.80;;;;;;;23.83;56.10;95800.09;108656;1266;22525;-81
2023/07/02 09:10:31;;;;;;;9.60;4.70;;;;;;;23.72;56.33;95803.23;108683;1273;22586;-80
2023/07/02 09:13:10;;;;;;;6.40;4.80;;;;;;;23.63;56.61;95806.60;109007;1273;25400;-80
2023/07/02 09:15:44;;;;;;;7.60;4.90;;;;;;;23.64;56.55;95807.77;108612;1273;24338;-81
2023/07/02 09:18:20;;;;;;;7.60;4.70;;;;;;;23.60;56.70;95807.30;108610;1273;22522;-83
2023/07/02 09:20:53;;;;;;;6.20;4.90;;;;;;;23.71;57.03;95805.02;108668;1268;22573;-82
2023/07/02 09:23:33;;;;;;;8.20;4.80;;;;;;;23.76;57.14;95805.72;109023;1269;22651;-80
2023/07/02 09:26:05;;;;;;;6.10;4.30;;;;;;;23.81;57.22;95809.15;108425;1274;25255;-82
2023/07/02 09:28:36;;;;;;;5.40;4.30;;;;;;;23.78;56.59;95807.11;108910;1274;24294;-82
2023/07/02 09:31:08;;;;;;;6.20;4.30;;;;;;;23.80;56.72;95805.73;108932;1274;22619;-83
2023/07/02 09:33:40;;;;;;;5.50;4.40;;;;;;;23.81;56.72;95805.73;108979;1272;22527;-83
2023/07/02 09:36:12;;;;;;;5.80;4.80;;;;;;;23.67;56.29;95806.32;108984;1268;24263;-82
2023/07/02 09:38:44;;;;;;;6.60;4.00;;;;;;;23.50;56.25;95809.23;108882;1272;25427;-83
2023/07/02 09:41:16;;;;;;;5.30;4.50;;;;;;;23.35;56.12;95811.04;108505;1274;22514;-84
2023/07/02 09:43:48;;;;;;;6.50;4.20;;;;;;;23.27;56.40;95810.85;108665;1274;22521;-82
2023/07/02 09:46:20;;;;;;;4.00;3.60;;;;;;;23.23;56.77;95817.18;108647;1274;22632;-82
2023/07/02 09:48:52;;;;;;;5.20;4.10;;;;;;;23.24;56.96;95816.10;108921;1267;22517;-83
2023/07/02 09:51:24;;;;;;;6.40;4.10;;;;;;;23.20;57.01;95818.08;108619;1274;22632;-82
2023/07/02 09:53:55;;;;;;;7.00;4.30;;;;;;;23.12;57.03;95816.66;108952;1275;23365;-82
2023/07/02 09:56:26;;;;;;;5.00;3.80;;;;;;;23.05;56.95;95814.75;108931;1274;22607;-82
2023/07/02 09:58:58;;;;;;;7.10;3.60;;;;;;;23.05;57.50;95814.44;108940;1274;22522;-81
2023/07/02 10:01:29;;;;;;;6.10;4.20;;;;;;;23.03;57.22;95817.83;108634;1274;25284;-82
2023/07/02 10:04:13;;;;;;;6.20;3.60;;;;;;;22.92;57.07;95816.52;108976;1274;22535;-82
2023/07/02 10:06:53;;;;;;;8.60;3.80;;;;;;;22.84;57.51;95817.48;108966;1274;22555;-83
2023/07/02 10:09:38;;;;;;;3.70;3.40;;;;;;;22.81;57.79;95816.59;108902;1274;22522;-82
2023/07/02 10:12:23;;;;;;;4.60;3.50;;;;;;;22.79;58.07;95813.71;108971;1274;24279;-82
2023/07/02 10:14:56;;;;;;;4.00;3.30;;;;;;;22.84;58.85;95817.63;108927;1267;22515;-82
2023/07/02 10:17:30;;;;;;;6.50;3.60;;;;;;;22.92;58.67;95816.06;109010;1269;22577;-82
2023/07/02 10:20:06;;;;;;;7.10;3.40;;;;;;;22.96;59.06;95818.26;109051;1267;22820;-82
2023/07/02 10:22:47;;;;;;;6.30;3.60;;;;;;;23.03;59.20;95817.20;109172;1271;22547;-83
2023/07/02 10:25:28;;;;;;;4.50;2.90;;;;;;;23.05;59.02;95817.45;109095;1274;24505;-82
2023/07/02 10:28:14;;;;;;;4.90;3.30;;;;;;;22.96;58.73;95822.20;109121;1268;23862;-82
2023/07/02 10:30:46;;;;;;;3.70;3.30;;;;;;;22.81;58.75;95821.93;109041;1274;22544;-83
2023/07/02 10:33:21;;;;;;;4.60;3.20;;;;;;;22.70;59.13;95823.63;109142;1272;22547;-82
2023/07/02 10:35:52;;;;;;;4.30;3.50;;;;;;;22.63;59.10;95825.58;108989;1274;24267;-82
2023/07/02 10:38:26;;;;;;;5.00;3.60;;;;;;;22.49;59.06;95825.55;108921;1274;24265;-82
2023/07/02 10:41:01;;;;;;;4.20;3.00;;;;;;;22.40;59.62;95831.27;108940;1268;22559;-82
2023/07/02 10:43:33;;;;;;;5.40;3.60;;;;;;;22.27;59.56;95828.60;108996;1267;22645;-82
2023/07/02 10:46:04;;;;;;;5.80;3.60;;;;;;;22.09;59.59;95833.05;108666;1274;22542;-82
2023/07/02 10:48:36;;;;;;;4.40;3.60;;;;;;;21.95;59.76;95834.36;108961;1274;22680;-82
2023/07/02 10:51:15;;;;;;;4.40;3.30;;;;;;;21.84;60.23;95832.48;108920;1269;23677;-82
2023/07/02 10:53:46;;;;;;;4.50;3.50;;;;;;;21.80;60.46;95834.11;108966;1268;22677;-81
2023/07/02 10:56:21;;;;;;;5.20;3.30;;;;;;;21.79;61.07;95834.72;108671;1269;22641;-81
2023/07/02 10:58:53;;;;;;;5.50;3.40;;;;;;;21.79;61.20;95839.11;108641;1274;22531;-82
2023/07/02 11:01:30;;;;;;;8.30;3.70;;;;;;;21.80;61.62;95834.04;108974;1274;22536;-83
2023/07/02 11:04:04;;;;;;;6.90;3.70;;;;;;;21.88;61.96;95836.60;108957;1274;22593;-84
2023/07/02 11:06:35;;;;;;;4.70;3.70;;;;;;;21.92;61.93;95836.64;108986;1274;22546;-83
2023/07/02 11:09:20;;;;;;;5.50;4.20;;;;;;;21.93;61.87;95836.11;108940;1274;22569;-83
2023/07/02 11:11:57;;;;;;;6.10;4.10;;;;;;;21.99;62.08;95833.47;109005;1274;22544;-83
2023/07/02 11:14:33;;;;;;;5.00;3.50;;;;;;;22.07;62.10;95837.97;108934;1272;22995;-84
2023/07/02 11:17:07;;;;;;;6.60;3.70;;;;;;;22.11;62.13;95836.33;108922;1268;22527;-83
2023/07/02 11:19:39;;;;;;;3.90;3.10;;;;;;;22.16;62.33;95831.59;108981;1267;22539;-85
2023/07/02 11:22:10;;;;;;;4.90;3.50;;;;;;;22.12;61.66;95831.78;108990;1274;22514;-83
2023/07/02 11:24:42;;;;;;;6.60;4.20;;;;;;;22.02;61.79;95835.13;108955;1274;22584;-83
2023/07/02 11:27:23;;;;;;;6.40;3.40;;;;;;;21.98;61.76;95830.84;108775;1274;24378;-82
2023/07/02 11:30:01;;;;;;;4.50;3.40;;;;;;;21.95;61.86;95836.11;108946;1274;22546;-82
2023/07/02 11:32:36;;;;;;;4.20;3.30;;;;;;;22.00;61.98;95832.64;109015;1272;22554;-82
2023/07/02 11:35:10;;;;;;;5.60;3.60;;;;;;;22.05;62.05;95831.61;109054;1267;22554;-82
2023/07/02 11:37:46;;;;;;;5.10;3.80;;;;;;;22.14;62.15;95827.64;109004;1274;24301;-82
2023/07/02 11:40:21;;;;;;;5.40;3.60;;;;;;;22.30;62.19;95826.62;108991;1273;33438;-81